Time;durP1;ratioP1;P1;durP2;ratioP2;P2;SDS_P1;SDS_P2;PMS_P1;PMS_P2;Temp;Humidity;BMP_temperature;BMP_pressure;BME280_temperature;BME280_humidity;BME280_pressure;Samples;Min_cycle;Max_cycle;Signal;HPM_P1;HPM_P2
2024/01/31 00:01:21;;;;;;;;;;;5.30;99.90;;;;;;4940256;28;19932;-73
2024/01/31 00:03:47;;;;;;;;;;;5.40;99.90;;;;;;4980121;28;20040;-72
2024/01/31 00:06:13;;;;;;;;;;;5.40;99.90;;;;;;4934382;28;20161;-73
2024/01/31 00:08:39;;;;;;;;;;;5.30;99.90;;;;;;4936418;28;20280;-73
2024/01/31 00:11:06;;;;;;;;;;;5.30;99.90;;;;;;4916801;28;19933;-72
2024/01/31 00:13:32;;;;;;;;;;;5.30;99.90;;;;;;4952000;28;19921;-72
2024/01/31 00:15:58;;;;;;;;;;;5.30;99.90;;;;;;4933916;28;19984;-72
2024/01/31 00:18:24;;;;;;;;;;;5.30;99.90;;;;;;4969483;28;19941;-72
2024/01/31 00:20:50;;;;;;;;;;;5.30;99.90;;;;;;4940127;28;20443;-72
2024/01/31 00:23:18;;;;;;;;;;;5.30;99.90;;;;;;4963917;28;19930;-73
2024/01/31 00:25:45;;;;;;;;;;;5.30;99.90;;;;;;4962693;28;19925;-72
2024/01/31 00:28:11;;;;;;;;;;;5.20;99.90;;;;;;4940594;28;20694;-71
2024/01/31 00:30:37;;;;;;;;;;;5.20;99.90;;;;;;4962460;28;20738;-72
2024/01/31 00:33:03;;;;;;;;;;;5.20;99.90;;;;;;4940673;28;19932;-72
2024/01/31 00:35:29;;;;;;;;;;;5.20;99.90;;;;;;4961460;28;19933;-72
2024/01/31 00:37:55;;;;;;;;;;;5.20;99.90;;;;;;4956111;28;19929;-71
2024/01/31 00:40:21;;;;;;;;;;;5.20;99.90;;;;;;4964062;28;19936;-73
2024/01/31 00:42:47;;;;;;;;;;;5.20;99.90;;;;;;4922292;28;20551;-73
2024/01/31 00:45:14;;;;;;;;;;;5.20;99.90;;;;;;4964244;28;19940;-73
2024/01/31 00:47:40;;;;;;;;;;;5.20;99.90;;;;;;4957670;28;19925;-73
2024/01/31 00:50:06;;;;;;;;;;;5.20;99.90;;;;;;4957811;28;19937;-73
2024/01/31 00:52:32;;;;;;;;;;;5.20;99.90;;;;;;4925619;28;19932;-73
2024/01/31 00:54:58;;;;;;;;;;;5.20;99.90;;;;;;4962965;28;19929;-73
2024/01/31 00:57:24;;;;;;;;;;;5.20;99.90;;;;;;4940273;28;19937;-72
2024/01/31 00:59:50;;;;;;;;;;;5.20;99.90;;;;;;4945558;28;19929;-73
2024/01/31 01:02:16;;;;;;;;;;;5.20;99.90;;;;;;4914340;28;19932;-72
2024/01/31 01:04:43;;;;;;;;;;;5.20;99.90;;;;;;4957380;28;21219;-72
2024/01/31 01:07:09;;;;;;;;;;;5.20;99.90;;;;;;4939180;28;20848;-72
2024/01/31 01:09:35;;;;;;;;;;;5.20;99.90;;;;;;4961912;28;20028;-71
2024/01/31 01:12:02;;;;;;;;;;;5.20;99.90;;;;;;4938339;28;19929;-72
2024/01/31 01:14:27;;;;;;;;;;;5.20;99.90;;;;;;4946024;28;19936;-72
2024/01/31 01:16:53;;;;;;;;;;;5.20;99.90;;;;;;4934964;28;20379;-72
2024/01/31 01:19:19;;;;;;;;;;;5.20;99.90;;;;;;4963944;28;19929;-72
2024/01/31 01:21:45;;;;;;;;;;;5.20;99.90;;;;;;4951976;28;21096;-72
2024/01/31 01:24:11;;;;;;;;;;;5.20;99.90;;;;;;4964748;28;19929;-72
2024/01/31 01:26:37;;;;;;;;;;;5.20;99.90;;;;;;4929062;28;21070;-72
2024/01/31 01:29:03;;;;;;;;;;;5.20;99.90;;;;;;4948323;28;19932;-72
2024/01/31 01:31:29;;;;;;;;;;;5.10;99.90;;;;;;4939287;28;21077;-72
2024/01/31 01:33:55;;;;;;;;;;;5.10;99.90;;;;;;4977569;28;20041;-72
2024/01/31 01:36:21;;;;;;;;;;;5.10;99.90;;;;;;4950569;28;19925;-73
2024/01/31 01:38:47;;;;;;;;;;;5.10;99.90;;;;;;4966598;28;21050;-73
2024/01/31 01:41:13;;;;;;;;;;;5.10;99.90;;;;;;4932277;28;19927;-71
2024/01/31 01:43:42;;;;;;;;;;;5.10;99.90;;;;;;4982124;28;19925;-72
2024/01/31 01:46:10;;;;;;;;;;;5.10;99.90;;;;;;4934514;28;20423;-73
2024/01/31 01:48:36;;;;;;;;;;;5.10;99.90;;;;;;4966243;28;19932;-72
2024/01/31 01:51:02;;;;;;;;;;;5.10;99.90;;;;;;4934411;28;19926;-72
2024/01/31 01:53:29;;;;;;;;;;;5.20;99.90;;;;;;4978808;28;19929;-72
2024/01/31 01:55:55;;;;;;;;;;;5.10;99.90;;;;;;4933823;28;20515;-72
2024/01/31 01:58:21;;;;;;;;;;;5.20;99.90;;;;;;4951452;28;20355;-72
2024/01/31 02:00:47;;;;;;;;;;;5.20;99.90;;;;;;4960987;28;19937;-71
2024/01/31 02:03:14;;;;;;;;;;;5.20;99.90;;;;;;4917988;28;20040;-71
2024/01/31 02:05:42;;;;;;;;;;;5.20;99.90;;;;;;4960317;28;20016;-72
2024/01/31 02:08:08;;;;;;;;;;;5.20;99.90;;;;;;4919739;28;20031;-72
2024/01/31 02:10:34;;;;;;;;;;;5.20;99.90;;;;;;4958266;28;19930;-72
2024/01/31 02:13:00;;;;;;;;;;;5.10;99.90;;;;;;4911298;28;19929;-73
2024/01/31 02:15:26;;;;;;;;;;;5.10;99.90;;;;;;4962901;28;20963;-73
2024/01/31 02:17:52;;;;;;;;;;;5.10;99.90;;;;;;4939020;28;19929;-73
2024/01/31 02:20:18;;;;;;;;;;;5.10;99.90;;;;;;4961836;28;20959;-71
2024/01/31 02:22:47;;;;;;;;;;;5.00;99.90;;;;;;4940211;28;21074;-73
2024/01/31 02:25:14;;;;;;;;;;;5.00;99.90;;;;;;4965200;28;19925;-73
2024/01/31 02:27:40;;;;;;;;;;;5.00;99.90;;;;;;4955544;28;20508;-72
2024/01/31 02:30:07;;;;;;;;;;;4.90;99.90;;;;;;4967981;28;19926;-72
2024/01/31 02:32:33;;;;;;;;;;;4.90;99.90;;;;;;4953237;28;20663;-72
2024/01/31 02:34:59;;;;;;;;;;;4.80;99.90;;;;;;4965443;28;19925;-72
2024/01/31 02:37:25;;;;;;;;;;;4.70;99.90;;;;;;4937690;28;20647;-72
2024/01/31 02:39:52;;;;;;;;;;;4.70;99.90;;;;;;4946223;28;19929;-72
2024/01/31 02:42:18;;;;;;;;;;;4.60;99.90;;;;;;4918551;28;19936;-72
2024/01/31 02:44:44;;;;;;;;;;;4.60;99.90;;;;;;4966901;28;20672;-73
2024/01/31 02:47:10;;;;;;;;;;;4.50;99.90;;;;;;4936902;28;19925;-72
2024/01/31 02:49:36;;;;;;;;;;;4.50;99.90;;;;;;4967105;28;19925;-72
2024/01/31 02:52:02;;;;;;;;;;;4.50;99.90;;;;;;4928554;28;20231;-73
2024/01/31 02:54:27;;;;;;;;;;;4.50;99.90;;;;;;4959373;28;20053;-73
2024/01/31 02:56:53;;;;;;;;;;;4.50;99.90;;;;;;4945252;28;20431;-72
2024/01/31 02:59:22;;;;;;;;;;;4.40;99.90;;;;;;4967054;28;19936;-72
2024/01/31 03:01:49;;;;;;;;;;;4.40;99.90;;;;;;4944620;28;19925;-72
2024/01/31 03:04:15;;;;;;;;;;;4.40;99.90;;;;;;4964262;28;21036;-72
2024/01/31 03:06:41;;;;;;;;;;;4.40;99.90;;;;;;4928647;28;19929;-72
2024/01/31 03:09:08;;;;;;;;;;;4.40;99.90;;;;;;4955533;28;19925;-72
2024/01/31 03:11:34;;;;;;;;;;;4.40;99.90;;;;;;4937731;28;19925;-72
2024/01/31 03:14:00;;;;;;;;;;;4.40;99.90;;;;;;4967838;28;19936;-72
2024/01/31 03:16:26;;;;;;;;;;;4.30;99.90;;;;;;4932420;28;19937;-72
2024/01/31 03:18:53;;;;;;;;;;;4.40;99.90;;;;;;4956797;28;19930;-73
2024/01/31 03:21:19;;;;;;;;;;;4.30;99.90;;;;;;4936830;28;19924;-72
2024/01/31 03:23:45;;;;;;;;;;;4.30;99.90;;;;;;4969361;28;19929;-73
2024/01/31 03:26:11;;;;;;;;;;;4.40;99.90;;;;;;4935655;28;19925;-73
2024/01/31 03:28:37;;;;;;;;;;;4.40;99.90;;;;;;4967565;28;19926;-73
2024/01/31 03:31:03;;;;;;;;;;;4.40;99.90;;;;;;4933435;28;20433;-70
2024/01/31 03:33:29;;;;;;;;;;;4.40;99.90;;;;;;4982705;28;19941;-72
2024/01/31 03:35:55;;;;;;;;;;;4.40;99.90;;;;;;4936329;28;19926;-72
2024/01/31 03:38:22;;;;;;;;;;;4.40;99.90;;;;;;4948873;28;19937;-72
2024/01/31 03:40:50;;;;;;;;;;;4.40;99.90;;;;;;4972712;28;21604;-72
2024/01/31 03:43:16;;;;;;;;;;;4.40;99.90;;;;;;4935278;28;19932;-72
2024/01/31 03:45:42;;;;;;;;;;;4.40;99.90;;;;;;4962105;28;19926;-72
2024/01/31 03:48:07;;;;;;;;;;;4.40;99.90;;;;;;4955799;28;19924;-72
2024/01/31 03:50:33;;;;;;;;;;;4.40;99.90;;;;;;4960603;28;20422;-72
2024/01/31 03:52:59;;;;;;;;;;;4.40;99.90;;;;;;4956667;28;19932;-72
2024/01/31 03:55:25;;;;;;;;;;;4.30;99.90;;;;;;4963391;28;20003;-72
2024/01/31 03:57:51;;;;;;;;;;;4.20;99.90;;;;;;4956056;28;20414;-72
2024/01/31 04:00:17;;;;;;;;;;;4.10;99.90;;;;;;4963956;28;19933;-72
2024/01/31 04:02:43;;;;;;;;;;;4.10;99.90;;;;;;4935609;28;19925;-72
2024/01/31 04:05:10;;;;;;;;;;;4.00;99.90;;;;;;4964374;28;20019;-72
2024/01/31 04:07:36;;;;;;;;;;;4.00;99.90;;;;;;4917933;28;19925;-73
2024/01/31 04:10:03;;;;;;;;;;;4.00;99.90;;;;;;4960776;28;19925;-72
2024/01/31 04:12:29;;;;;;;;;;;3.90;99.90;;;;;;4934649;28;19925;-72
2024/01/31 04:14:55;;;;;;;;;;;3.80;99.90;;;;;;4964024;28;19925;-72
2024/01/31 04:17:21;;;;;;;;;;;3.80;99.90;;;;;;4924522;28;19934;-73
2024/01/31 04:19:48;;;;;;;;;;;3.80;99.90;;;;;;4954790;28;19925;-74
2024/01/31 04:22:15;;;;;;;;;;;3.80;99.90;;;;;;4937644;28;19932;-72
2024/01/31 04:24:42;;;;;;;;;;;3.70;99.90;;;;;;4963193;28;19952;-73
2024/01/31 04:27:08;;;;;;;;;;;3.70;99.90;;;;;;4946792;28;20043;-73
2024/01/31 04:29:34;;;;;;;;;;;3.80;99.90;;;;;;4972090;28;20974;-72
2024/01/31 04:31:59;;;;;;;;;;;3.80;99.90;;;;;;4937805;28;19936;-72
2024/01/31 04:34:25;;;;;;;;;;;3.80;99.90;;;;;;4956254;28;20945;-73
2024/01/31 04:36:51;;;;;;;;;;;3.80;99.90;;;;;;4945857;28;20661;-72
2024/01/31 04:39:17;;;;;;;;;;;3.80;99.90;;;;;;4948656;28;19929;-73
2024/01/31 04:41:43;;;;;;;;;;;3.80;99.90;;;;;;4935610;28;19932;-72
2024/01/31 04:44:09;;;;;;;;;;;3.90;99.90;;;;;;4966632;28;19925;-72
2024/01/31 04:46:36;;;;;;;;;;;3.90;99.90;;;;;;4936818;28;20540;-73
2024/01/31 04:49:02;;;;;;;;;;;3.90;99.90;;;;;;4967439;28;19929;-72
2024/01/31 04:51:28;;;;;;;;;;;3.90;99.90;;;;;;4928033;28;20726;-72
2024/01/31 04:53:54;;;;;;;;;;;3.80;99.90;;;;;;4961866;28;19925;-72
2024/01/31 04:56:19;;;;;;;;;;;3.90;99.90;;;;;;4934776;28;20526;-72
2024/01/31 04:58:45;;;;;;;;;;;3.80;99.90;;;;;;4951352;28;20424;-72
2024/01/31 05:01:11;;;;;;;;;;;3.80;99.90;;;;;;4936608;28;19961;-72
2024/01/31 05:03:37;;;;;;;;;;;3.90;99.90;;;;;;4966803;28;20698;-72
2024/01/31 05:06:03;;;;;;;;;;;3.90;99.90;;;;;;4933301;28;19933;-73
2024/01/31 05:08:29;;;;;;;;;;;3.90;99.90;;;;;;4981774;28;19948;-72
2024/01/31 05:10:55;;;;;;;;;;;3.90;99.90;;;;;;4947504;28;19934;-73
2024/01/31 05:13:21;;;;;;;;;;;3.90;99.90;;;;;;4984111;28;20191;-72
2024/01/31 05:15:47;;;;;;;;;;;3.90;99.90;;;;;;4961206;28;19929;-72
2024/01/31 05:18:14;;;;;;;;;;;3.90;99.90;;;;;;4954950;28;19940;-73
2024/01/31 05:20:40;;;;;;;;;;;3.90;99.90;;;;;;4961541;28;19925;-72
2024/01/31 05:23:06;;;;;;;;;;;4.00;99.90;;;;;;4940251;28;19932;-72
2024/01/31 05:25:31;;;;;;;;;;;4.00;99.90;;;;;;4963870;28;19929;-72
2024/01/31 05:27:57;;;;;;;;;;;4.00;99.90;;;;;;4940736;28;19925;-73
2024/01/31 05:30:23;;;;;;;;;;;4.10;99.90;;;;;;4944772;28;19925;-72
2024/01/31 05:32:49;;;;;;;;;;;4.10;99.90;;;;;;4931009;28;19924;-71
2024/01/31 05:35:15;;;;;;;;;;;4.10;99.90;;;;;;4959635;28;19925;-72
2024/01/31 05:37:41;;;;;;;;;;;4.10;99.90;;;;;;4952535;28;20512;-73
2024/01/31 05:40:09;;;;;;;;;;;4.10;99.90;;;;;;4961468;28;19925;-73
2024/01/31 05:42:35;;;;;;;;;;;4.10;99.90;;;;;;4921677;28;19929;-72
2024/01/31 05:45:00;;;;;;;;;;;4.10;99.90;;;;;;4965697;28;19929;-73
2024/01/31 05:47:26;;;;;;;;;;;4.10;99.90;;;;;;4933212;28;19925;-73
2024/01/31 05:49:52;;;;;;;;;;;4.10;99.90;;;;;;4966802;28;19936;-72
2024/01/31 05:52:18;;;;;;;;;;;4.10;99.90;;;;;;4948180;28;19933;-73
2024/01/31 05:54:44;;;;;;;;;;;4.10;99.90;;;;;;4967934;28;19948;-73
2024/01/31 05:57:10;;;;;;;;;;;4.10;99.90;;;;;;4935412;28;20495;-72
2024/01/31 05:59:40;;;;;;;;;;;4.10;99.90;;;;;;4964064;28;19930;-73
2024/01/31 06:02:06;;;;;;;;;;;4.10;99.90;;;;;;4934426;28;20506;-73
2024/01/31 06:04:32;;;;;;;;;;;4.10;99.90;;;;;;4961799;28;19925;-73
2024/01/31 06:06:58;;;;;;;;;;;4.10;99.90;;;;;;4932679;28;19936;-72
2024/01/31 06:09:26;;;;;;;;;;;4.10;99.90;;;;;;4960448;28;20406;-72
2024/01/31 06:11:52;;;;;;;;;;;4.10;99.90;;;;;;4927915;28;21030;-72
2024/01/31 06:14:18;;;;;;;;;;;4.10;99.90;;;;;;4963550;28;19933;-71
2024/01/31 06:16:44;;;;;;;;;;;4.10;99.90;;;;;;4932064;28;19926;-72
2024/01/31 06:19:10;;;;;;;;;;;4.20;99.90;;;;;;4950957;28;19930;-72
2024/01/31 06:21:35;;;;;;;;;;;4.20;99.90;;;;;;4940397;28;19925;-72
2024/01/31 06:24:01;;;;;;;;;;;4.20;99.90;;;;;;4966876;28;19929;-72
2024/01/31 06:26:28;;;;;;;;;;;4.20;99.90;;;;;;4939278;28;19932;-73
2024/01/31 06:28:54;;;;;;;;;;;4.30;99.90;;;;;;4981232;28;19972;-73
2024/01/31 06:31:28;;;;;;;;;;;4.30;99.90;;;;;;4938990;28;20402;-72
2024/01/31 06:33:54;;;;;;;;;;;4.30;99.90;;;;;;4967638;28;19925;-72
2024/01/31 06:36:20;;;;;;;;;;;4.30;99.90;;;;;;4938674;28;19925;-73
2024/01/31 06:38:46;;;;;;;;;;;4.40;99.90;;;;;;4979733;28;19949;-72
2024/01/31 06:41:15;;;;;;;;;;;4.40;99.90;;;;;;4920049;28;19930;-72
2024/01/31 06:43:41;;;;;;;;;;;4.40;99.90;;;;;;4975850;28;19929;-73
2024/01/31 06:46:07;;;;;;;;;;;4.50;99.90;;;;;;4905335;28;20483;-73
2024/01/31 06:48:33;;;;;;;;;;;4.50;99.90;;;;;;4980580;28;19925;-73
2024/01/31 06:50:59;;;;;;;;;;;4.50;99.90;;;;;;4928473;28;19926;-73
2024/01/31 06:53:27;;;;;;;;;;;4.50;99.90;;;;;;4960854;28;21127;-72
2024/01/31 06:55:53;;;;;;;;;;;4.50;99.90;;;;;;4923544;28;19926;-73
2024/01/31 06:58:19;;;;;;;;;;;4.60;99.90;;;;;;4973544;28;20442;-73
2024/01/31 07:00:45;;;;;;;;;;;4.60;99.90;;;;;;4960509;28;20419;-73
2024/01/31 07:03:11;;;;;;;;;;;4.60;99.90;;;;;;4952261;28;19925;-73
2024/01/31 07:05:37;;;;;;;;;;;4.50;99.90;;;;;;4960578;28;19936;-71
2024/01/31 07:08:03;;;;;;;;;;;4.60;99.90;;;;;;4957462;28;19995;-71
2024/01/31 07:10:29;;;;;;;;;;;4.60;99.90;;;;;;4964481;28;19929;-71
2024/01/31 07:12:55;;;;;;;;;;;4.60;99.90;;;;;;4939920;28;21933;-71
2024/01/31 07:15:21;;;;;;;;;;;4.60;99.90;;;;;;4978772;28;19925;-71
2024/01/31 07:17:47;;;;;;;;;;;4.60;99.90;;;;;;4914602;28;19932;-71
2024/01/31 07:20:13;;;;;;;;;;;4.60;99.90;;;;;;4960709;28;19925;-70
2024/01/31 07:22:39;;;;;;;;;;;4.60;99.90;;;;;;4942249;28;19924;-71
2024/01/31 07:25:10;;;;;;;;;;;4.60;99.90;;;;;;4962142;28;19926;-71
2024/01/31 07:27:40;;;;;;;;;;;4.70;99.90;;;;;;4934057;28;19930;-71
2024/01/31 07:30:12;;;;;;;;;;;4.70;99.90;;;;;;4959242;28;19933;-70
2024/01/31 07:32:38;;;;;;;;;;;4.70;99.90;;;;;;4915635;28;19940;-71
2024/01/31 07:35:07;;;;;;;;;;;4.70;99.90;;;;;;4965213;28;19925;-71
2024/01/31 07:37:36;;;;;;;;;;;4.70;99.90;;;;;;4922000;28;19936;-71
2024/01/31 07:40:04;;;;;;;;;;;4.70;99.90;;;;;;4960126;28;19933;-71
2024/01/31 07:42:30;;;;;;;;;;;4.70;99.90;;;;;;4920154;28;19925;-71
2024/01/31 07:44:55;;;;;;;;;;;4.70;99.90;;;;;;4961396;28;19929;-73
2024/01/31 07:47:21;;;;;;;;;;;4.70;99.90;;;;;;4949419;28;20745;-70
2024/01/31 07:49:47;;;;;;;;;;;4.70;99.90;;;;;;4961955;28;19925;-70
2024/01/31 07:52:13;;;;;;;;;;;4.70;99.90;;;;;;4949243;28;19931;-70
2024/01/31 07:54:39;;;;;;;;;;;4.70;99.90;;;;;;4962623;28;19937;-70
2024/01/31 07:57:05;;;;;;;;;;;4.80;99.90;;;;;;4937477;28;20016;-70
2024/01/31 07:59:31;;;;;;;;;;;4.80;99.90;;;;;;4957826;28;19929;-70
2024/01/31 08:01:57;;;;;;;;;;;4.80;99.90;;;;;;4941041;28;19924;-70
2024/01/31 08:04:23;;;;;;;;;;;4.80;99.90;;;;;;4978392;28;19926;-71
2024/01/31 08:06:49;;;;;;;;;;;4.90;99.90;;;;;;4945976;28;21033;-70
2024/01/31 08:09:15;;;;;;;;;;;4.80;99.90;;;;;;4977089;28;19933;-70
2024/01/31 08:11:42;;;;;;;;;;;4.90;99.90;;;;;;4935461;28;19925;-70
2024/01/31 08:14:08;;;;;;;;;;;4.90;99.90;;;;;;4975253;28;19925;-70
2024/01/31 08:16:33;;;;;;;;;;;4.90;99.90;;;;;;4928458;28;19925;-70
2024/01/31 08:18:59;;;;;;;;;;;4.90;99.90;;;;;;4952902;28;20420;-71
2024/01/31 08:21:25;;;;;;;;;;;4.90;99.90;;;;;;4933869;28;19935;-71
2024/01/31 08:23:51;;;;;;;;;;;4.90;99.90;;;;;;4966517;28;19956;-71
2024/01/31 08:26:17;;;;;;;;;;;4.90;99.90;;;;;;4933501;28;19929;-70
2024/01/31 08:28:44;;;;;;;;;;;4.90;99.90;;;;;;4968115;28;19936;-70
2024/01/31 08:31:10;;;;;;;;;;;5.00;99.90;;;;;;4913188;28;19937;-71
2024/01/31 08:33:35;;;;;;;;;;;5.00;99.90;;;;;;4965203;28;20195;-70
2024/01/31 08:36:01;;;;;;;;;;;5.00;99.90;;;;;;4932624;28;21896;-71
2024/01/31 08:38:27;;;;;;;;;;;5.10;99.90;;;;;;4965971;28;20032;-71
2024/01/31 08:40:53;;;;;;;;;;;5.10;99.90;;;;;;4940392;28;19925;-69
2024/01/31 08:43:19;;;;;;;;;;;5.10;99.90;;;;;;4943600;28;19931;-71
2024/01/31 08:45:45;;;;;;;;;;;5.20;99.90;;;;;;4962446;28;19932;-71
2024/01/31 08:48:11;;;;;;;;;;;5.10;99.90;;;;;;4936134;28;19925;-70
2024/01/31 08:50:37;;;;;;;;;;;5.20;99.90;;;;;;4975495;28;19925;-71
2024/01/31 08:53:03;;;;;;;;;;;5.20;99.90;;;;;;4957095;28;19936;-71
2024/01/31 08:55:29;;;;;;;;;;;5.20;99.90;;;;;;4963085;28;19929;-71
2024/01/31 08:57:55;;;;;;;;;;;5.30;99.90;;;;;;4917489;28;20366;-71
2024/01/31 09:00:21;;;;;;;;;;;5.30;99.90;;;;;;4983197;28;19932;-71
2024/01/31 09:02:47;;;;;;;;;;;5.30;99.90;;;;;;4928139;28;20382;-72
2024/01/31 09:05:13;;;;;;;;;;;5.30;99.90;;;;;;4941969;28;19929;-71
2024/01/31 09:07:39;;;;;;;;;;;5.40;99.90;;;;;;4951890;28;20523;-71
2024/01/31 09:10:05;;;;;;;;;;;5.40;99.90;;;;;;4965091;28;20891;-70
2024/01/31 09:12:31;;;;;;;;;;;5.50;99.90;;;;;;4921032;28;19936;-72
2024/01/31 09:14:57;;;;;;;;;;;5.50;99.90;;;;;;4964765;28;19925;-71
2024/01/31 09:17:23;;;;;;;;;;;5.50;99.90;;;;;;4946649;28;19996;-72
2024/01/31 09:19:49;;;;;;;;;;;5.60;99.90;;;;;;4966280;28;20407;-71
2024/01/31 09:22:15;;;;;;;;;;;5.60;99.90;;;;;;4937311;28;19925;-71
2024/01/31 09:24:41;;;;;;;;;;;5.70;99.90;;;;;;4968607;28;20333;-71
2024/01/31 09:27:07;;;;;;;;;;;5.70;99.90;;;;;;4945397;28;19936;-72
2024/01/31 09:29:33;;;;;;;;;;;5.80;99.90;;;;;;4967112;28;19926;-71
2024/01/31 09:31:59;;;;;;;;;;;5.80;99.90;;;;;;4943220;28;19925;-71
2024/01/31 09:34:25;;;;;;;;;;;5.90;99.90;;;;;;4970880;28;20388;-71
2024/01/31 09:36:51;;;;;;;;;;;5.90;99.90;;;;;;4942818;28;20047;-71
2024/01/31 09:39:17;;;;;;;;;;;5.90;99.90;;;;;;4970879;28;19937;-71
2024/01/31 09:41:43;;;;;;;;;;;5.90;99.90;;;;;;4942611;28;19932;-71
2024/01/31 09:44:09;;;;;;;;;;;6.00;99.90;;;;;;4964174;28;19925;-72
2024/01/31 09:46:36;;;;;;;;;;;6.00;99.90;;;;;;4933876;28;19931;-72
2024/01/31 09:49:02;;;;;;;;;;;6.00;99.90;;;;;;4965540;28;19925;-72
2024/01/31 09:51:29;;;;;;;;;;;6.10;99.90;;;;;;4938921;28;19939;-71
2024/01/31 09:53:57;;;;;;;;;;;6.10;99.90;;;;;;4975302;28;20442;-71
2024/01/31 09:56:27;;;;;;;;;;;6.10;99.90;;;;;;4939279;28;19925;-70
2024/01/31 09:58:56;;;;;;;;;;;6.10;99.90;;;;;;4963633;28;20576;-71
2024/01/31 10:01:23;;;;;;;;;;;6.10;99.90;;;;;;4938837;28;19925;-70
2024/01/31 10:03:49;;;;;;;;;;;6.20;99.90;;;;;;4962564;28;19925;-71
2024/01/31 10:06:15;;;;;;;;;;;6.10;99.90;;;;;;4933253;28;20349;-70
2024/01/31 10:08:41;;;;;;;;;;;6.20;99.90;;;;;;4976764;28;19999;-70
2024/01/31 10:11:06;;;;;;;;;;;6.20;99.90;;;;;;4934541;28;19929;-71
2024/01/31 10:13:32;;;;;;;;;;;6.20;99.90;;;;;;4965113;28;19930;-71
2024/01/31 10:15:58;;;;;;;;;;;6.30;99.90;;;;;;4929516;28;19952;-71
2024/01/31 10:18:27;;;;;;;;;;;6.30;99.90;;;;;;4942180;28;19932;-72
2024/01/31 10:20:54;;;;;;;;;;;6.30;99.90;;;;;;4944253;28;20600;-71
2024/01/31 10:23:20;;;;;;;;;;;6.40;99.90;;;;;;4934445;28;19925;-71
2024/01/31 10:25:46;;;;;;;;;;;6.40;99.90;;;;;;4960760;28;19933;-71
2024/01/31 10:28:18;;;;;;;;;;;6.40;99.90;;;;;;4946857;28;19928;-71
2024/01/31 10:30:45;;;;;;;;;;;6.40;99.90;;;;;;4959245;28;19932;-71
2024/01/31 10:33:11;;;;;;;;;;;6.40;99.90;;;;;;4935311;28;19928;-71
2024/01/31 10:35:39;;;;;;;;;;;6.50;99.90;;;;;;4957520;28;19944;-72
2024/01/31 10:38:06;;;;;;;;;;;6.50;99.90;;;;;;4952180;28;19936;-71
2024/01/31 10:40:33;;;;;;;;;;;6.50;99.90;;;;;;4962269;28;21094;-71
2024/01/31 10:42:58;;;;;;;;;;;6.50;99.90;;;;;;4939060;28;19932;-71
2024/01/31 10:45:25;;;;;;;;;;;6.50;99.90;;;;;;4962897;28;19926;-72
2024/01/31 10:47:52;;;;;;;;;;;6.60;99.90;;;;;;4938496;28;19925;-71
2024/01/31 10:50:18;;;;;;;;;;;6.60;99.90;;;;;;4959497;28;19926;-72
2024/01/31 10:52:45;;;;;;;;;;;6.60;99.90;;;;;;4950786;28;20383;-71
2024/01/31 10:55:11;;;;;;;;;;;6.60;99.90;;;;;;4961046;28;19948;-72
2024/01/31 10:57:39;;;;;;;;;;;6.60;99.90;;;;;;4935398;28;20048;-72
2024/01/31 11:00:09;;;;;;;;;;;6.50;99.90;;;;;;4960618;28;20523;-71
2024/01/31 11:02:35;;;;;;;;;;;6.60;99.90;;;;;;4950098;28;19925;-71
2024/01/31 11:05:01;;;;;;;;;;;6.60;99.90;;;;;;4960430;28;20344;-70
2024/01/31 11:07:28;;;;;;;;;;;6.60;99.90;;;;;;4934154;28;20601;-70
2024/01/31 11:09:54;;;;;;;;;;;6.60;99.90;;;;;;4943035;28;19932;-71
2024/01/31 11:12:20;;;;;;;;;;;6.60;99.90;;;;;;4948262;28;19940;-71
2024/01/31 11:14:47;;;;;;;;;;;6.60;99.90;;;;;;4966497;28;19929;-70
2024/01/31 11:17:19;;;;;;;;;;;6.60;99.90;;;;;;4948542;28;19929;-71
2024/01/31 11:19:49;;;;;;;;;;;6.60;99.90;;;;;;4967460;28;19929;-72
2024/01/31 11:22:15;;;;;;;;;;;6.70;99.90;;;;;;4930229;28;19944;-72
2024/01/31 11:24:45;;;;;;;;;;;6.70;99.90;;;;;;4959753;28;20751;-71
2024/01/31 11:27:11;;;;;;;;;;;6.70;99.90;;;;;;4948509;28;19929;-72
2024/01/31 11:29:37;;;;;;;;;;;6.70;99.90;;;;;;4960440;28;19925;-72
2024/01/31 11:32:04;;;;;;;;;;;6.70;99.90;;;;;;4944245;28;19997;-72
2024/01/31 11:34:30;;;;;;;;;;;6.70;99.90;;;;;;4969902;28;20478;-71
2024/01/31 11:36:56;;;;;;;;;;;6.70;99.90;;;;;;4930547;28;20878;-72
2024/01/31 11:39:22;;;;;;;;;;;6.70;99.90;;;;;;4961077;28;19934;-71
2024/01/31 11:41:48;;;;;;;;;;;6.70;99.90;;;;;;4926585;28;19937;-71
2024/01/31 11:44:14;;;;;;;;;;;6.70;99.90;;;;;;4948505;28;20039;-71
2024/01/31 11:46:40;;;;;;;;;;;6.70;99.90;;;;;;4933281;28;20621;-71
2024/01/31 11:49:06;;;;;;;;;;;6.60;99.90;;;;;;4964518;28;20288;-70
2024/01/31 11:51:32;;;;;;;;;;;6.60;99.90;;;;;;4937231;28;20423;-71
2024/01/31 11:53:58;;;;;;;;;;;6.70;99.90;;;;;;4974480;28;19929;-73
2024/01/31 11:56:24;;;;;;;;;;;6.60;99.90;;;;;;4938061;28;19974;-72
2024/01/31 11:58:51;;;;;;;;;;;6.60;99.90;;;;;;4970658;28;19934;-70
2024/01/31 12:01:17;;;;;;;;;;;6.70;99.90;;;;;;4932296;28;20792;-71
2024/01/31 12:03:44;;;;;;;;;;;6.70;99.90;;;;;;4963523;28;20186;-73
2024/01/31 12:06:16;;;;;;;;;;;6.60;99.90;;;;;;4934502;28;19942;-71
2024/01/31 12:08:46;;;;;;;;;;;6.60;99.90;;;;;;4963946;28;19922;-72
2024/01/31 12:11:16;;;;;;;;;;;6.60;99.90;;;;;;4931578;28;19942;-70
2024/01/31 12:13:42;;;;;;;;;;;6.60;99.90;;;;;;4978126;28;19921;-71
2024/01/31 12:16:08;;;;;;;;;;;6.60;99.90;;;;;;4934796;28;20928;-71
2024/01/31 12:18:34;;;;;;;;;;;6.60;99.90;;;;;;4980819;28;20432;-71
2024/01/31 12:21:03;;;;;;;;;;;6.60;99.90;;;;;;4932852;28;20173;-72
2024/01/31 12:23:29;;;;;;;;;;;6.50;99.90;;;;;;4965989;28;20978;-71
2024/01/31 12:25:58;;;;;;;;;;;6.60;99.90;;;;;;4937651;28;19933;-71
2024/01/31 12:28:24;;;;;;;;;;;6.60;99.90;;;;;;4982480;28;20980;-71
2024/01/31 12:30:51;;;;;;;;;;;6.60;99.90;;;;;;4957574;28;19926;-70
2024/01/31 12:33:17;;;;;;;;;;;6.60;99.90;;;;;;4949138;28;19929;-71
2024/01/31 12:35:44;;;;;;;;;;;6.60;99.90;;;;;;4981808;28;19941;-71
2024/01/31 12:38:10;;;;;;;;;;;6.60;99.90;;;;;;4933630;28;19933;-71
2024/01/31 12:40:36;;;;;;;;;;;6.70;99.90;;;;;;4960763;28;19936;-73
2024/01/31 12:43:02;;;;;;;;;;;6.70;99.90;;;;;;4918784;28;19926;-70
2024/01/31 12:45:28;;;;;;;;;;;6.70;99.90;;;;;;4961625;28;19929;-70
2024/01/31 12:47:54;;;;;;;;;;;6.80;99.90;;;;;;4920632;28;20652;-71
2024/01/31 12:50:20;;;;;;;;;;;6.80;99.90;;;;;;4962313;28;19932;-72
2024/01/31 12:52:47;;;;;;;;;;;6.80;99.90;;;;;;4951263;28;19929;-70
2024/01/31 12:55:13;;;;;;;;;;;6.90;99.90;;;;;;4961520;28;20419;-70
2024/01/31 12:57:39;;;;;;;;;;;6.90;99.90;;;;;;4931199;28;19929;-71
2024/01/31 13:00:05;;;;;;;;;;;7.00;99.90;;;;;;4965309;28;19929;-71
2024/01/31 13:02:31;;;;;;;;;;;7.00;99.90;;;;;;4933259;28;20873;-71
2024/01/31 13:04:57;;;;;;;;;;;7.00;99.90;;;;;;4958868;28;19932;-70
2024/01/31 13:07:23;;;;;;;;;;;7.10;99.90;;;;;;4949104;28;19959;-72
2024/01/31 13:09:49;;;;;;;;;;;7.00;99.90;;;;;;4965747;28;19979;-71
2024/01/31 13:12:15;;;;;;;;;;;7.10;99.90;;;;;;4944861;28;19925;-70
2024/01/31 13:14:41;;;;;;;;;;;7.10;99.90;;;;;;4969184;28;19948;-70
2024/01/31 13:17:07;;;;;;;;;;;7.10;99.90;;;;;;4943197;28;19924;-70
2024/01/31 13:19:34;;;;;;;;;;;7.10;99.90;;;;;;4962709;28;19937;-71
2024/01/31 13:22:02;;;;;;;;;;;7.10;99.90;;;;;;4932495;28;19925;-71
2024/01/31 13:24:28;;;;;;;;;;;7.10;99.90;;;;;;4961474;28;19929;-71
2024/01/31 13:26:54;;;;;;;;;;;7.10;99.90;;;;;;4933055;28;19929;-70
2024/01/31 13:29:21;;;;;;;;;;;7.10;99.90;;;;;;4952399;28;19932;-71
2024/01/31 13:31:47;;;;;;;;;;;7.10;99.90;;;;;;4937690;28;19928;-71
2024/01/31 13:34:13;;;;;;;;;;;7.10;99.90;;;;;;4962678;28;19936;-70
2024/01/31 13:36:39;;;;;;;;;;;7.00;99.90;;;;;;4920006;28;20623;-71
2024/01/31 13:39:05;;;;;;;;;;;7.00;99.90;;;;;;4938774;28;19929;-71
2024/01/31 13:41:31;;;;;;;;;;;7.00;99.90;;;;;;4932973;28;20436;-71
2024/01/31 13:43:57;;;;;;;;;;;7.00;99.90;;;;;;4963753;28;19942;-71
2024/01/31 13:46:23;;;;;;;;;;;7.00;99.90;;;;;;4939245;28;19924;-71
2024/01/31 13:48:50;;;;;;;;;;;7.00;99.90;;;;;;4978158;28;19930;-71
2024/01/31 13:51:17;;;;;;;;;;;7.00;99.90;;;;;;4937303;28;19982;-71
2024/01/31 13:53:43;;;;;;;;;;;7.00;99.90;;;;;;4981980;28;19930;-71
2024/01/31 13:56:09;;;;;;;;;;;7.00;99.90;;;;;;4914739;28;19925;-72
2024/01/31 13:58:35;;;;;;;;;;;7.00;99.90;;;;;;4964829;28;19925;-72
2024/01/31 14:01:01;;;;;;;;;;;7.00;99.90;;;;;;4929856;28;21046;-71
2024/01/31 14:03:27;;;;;;;;;;;7.00;99.90;;;;;;4980271;28;19925;-70
2024/01/31 14:05:53;;;;;;;;;;;7.00;99.90;;;;;;4948333;28;19926;-69
2024/01/31 14:08:19;;;;;;;;;;;7.00;99.90;;;;;;4970291;28;20942;-68
2024/01/31 14:10:45;;;;;;;;;;;6.90;99.90;;;;;;4960407;28;19932;-70
2024/01/31 14:13:12;;;;;;;;;;;7.00;99.90;;;;;;4953832;28;20966;-70
2024/01/31 14:15:39;;;;;;;;;;;6.90;99.90;;;;;;4960765;28;19954;-73
2024/01/31 14:18:05;;;;;;;;;;;6.90;99.90;;;;;;4928282;28;19925;-73
2024/01/31 14:20:32;;;;;;;;;;;6.90;99.90;;;;;;4957416;28;21001;-74
2024/01/31 14:22:58;;;;;;;;;;;6.90;99.90;;;;;;4957683;28;19972;-74
2024/01/31 14:25:24;;;;;;;;;;;6.90;99.90;;;;;;4961718;28;21125;-74